Rotterdam Express — DMRX — position and weather

sailwx.info

Track history (hours):
 
Tides and Currents Weather Stations Pressure Air Temp Water Temp Dewpoint Dewpoint Depression Visibility Wind Speed Wind Dir Waves Ship Positions

Rotterdam Express

Last reported at 2018-Feb-19 22:00 UTC. Time now 2018-Feb-19 22:19 UTC.
Position N 41°17' E 002°23'.

Length 294 m; beam 32.2 m; draft 13.6 m.

Type: Ship (hazmat cat A). MMSI: 211335760.

Date/timePositionNaut miles runAvg speedWind from/ knotsBaromVisibWave heightAir tempDewpointWater temp
2018-Feb-19 22:00N 41°17' E 002°23'5 8.9
2018-Feb-19 21:30N 41°19' E 002°28'5 8.6
2018-Feb-19 20:59N 41°21' E 002°34'4 8.6
2018-Feb-19 20:28N 41°23' E 002°39'147 6.0
2018-Feb-18 19:49N 43°08' E 004°57'3 7.6
2018-Feb-18 19:26N 43°11' E 004°60'3 7.4
2018-Feb-18 18:59N 43°14' E 005°00'10 8.4
2018-Feb-18 17:47N 43°24' E 004°56'3 9.7
2018-Feb-18 17:30N 43°24' E 004°52'1 1.4
2018-Feb-18 17:00N 43°24' E 004°51'0 0.0
2018-Feb-18 16:30N 43°24' E 004°51'0 0.0
2018-Feb-18 16:00N 43°24' E 004°51'0 0.0
2018-Feb-18 15:30N 43°24' E 004°51'0 0.0
2018-Feb-18 15:00N 43°24' E 004°51'0 0.0
2018-Feb-18 14:30N 43°24' E 004°51'0 0.0
2018-Feb-18 14:00N 43°24' E 004°51'0 0.0
2018-Feb-18 13:30N 43°24' E 004°51'0 0.0
2018-Feb-18 13:00N 43°24' E 004°51'0 0.0
2018-Feb-18 12:30N 43°24' E 004°51'0 0.0
2018-Feb-18 12:00N 43°24' E 004°51'0 0.0
2018-Feb-18 11:24N 43°24' E 004°51'0 0.0
2018-Feb-18 11:00N 43°24' E 004°51'0 0.0
2018-Feb-18 10:30N 43°24' E 004°51'0 0.0
2018-Feb-18 10:00N 43°24' E 004°51'0 0.0
2018-Feb-18 09:30N 43°24' E 004°51'0 0.0
2018-Feb-18 08:57N 43°24' E 004°51'0 0.0
2018-Feb-18 08:30N 43°24' E 004°51'0 0.0
2018-Feb-18 08:00N 43°24' E 004°51'0 0.0
2018-Feb-18 07:30N 43°24' E 004°51'0 0.0
2018-Feb-18 07:00N 43°24' E 004°51'0 0.0
2018-Feb-18 06:30N 43°24' E 004°51'0 0.0
2018-Feb-18 05:39N 43°24' E 004°51'0 0.0
2018-Feb-18 05:30N 43°24' E 004°51'0 0.0
2018-Feb-18 04:55N 43°24' E 004°51'0 0.0
2018-Feb-18 04:22N 43°24' E 004°51'0 0.0
2018-Feb-18 03:58N 43°24' E 004°51'0 0.0
2018-Feb-18 03:30N 43°24' E 004°51'0 0.5
2018-Feb-18 03:00N 43°24' E 004°51'4 7.2
2018-Feb-18 02:29N 43°23' E 004°56'4 8.9
2018-Feb-18 02:00N 43°20' E 004°59'4 7.5
2018-Feb-18 01:30N 43°16' E 005°01'8911.3
2018-Feb-17 17:41N 43°09' E 007°02'715.8
2018-Feb-17 17:13N 43°14' E 007°10'1515.4
2018-Feb-17 16:16N 43°22' E 007°26'4416.5
2018-Feb-17 13:35N 43°48' E 008°16'116.2
2018-Feb-17 13:30N 43°49' E 008°17'816.0
2018-Feb-17 12:59N 43°56' E 008°23'816.1
2018-Feb-17 12:30N 44°03' E 008°28'917.3
2018-Feb-17 12:00N 44°11' E 008°34'816.8
2018-Feb-17 11:30N 44°18' E 008°39'714.7
2018-Feb-17 11:00N 44°25' E 008°44'2 3.7
2018-Feb-17 10:30N 44°25' E 008°47'0 0.0
2018-Feb-17 10:00N 44°25' E 008°47'0 0.0
2018-Feb-17 09:30N 44°25' E 008°47'0 0.0
2018-Feb-17 09:00N 44°25' E 008°47'0 0.0
2018-Feb-17 08:27N 44°25' E 008°47'0 0.0
2018-Feb-17 08:00N 44°25' E 008°47'0 0.0
2018-Feb-17 07:29N 44°25' E 008°47'0 0.0
2018-Feb-17 06:59N 44°25' E 008°47'0 0.0
2018-Feb-17 06:29N 44°25' E 008°47'0 0.0
2018-Feb-17 06:00N 44°25' E 008°47'0 0.0
2018-Feb-17 05:30N 44°25' E 008°47'0 0.0
2018-Feb-17 05:00N 44°25' E 008°47'0 0.0
2018-Feb-17 04:30N 44°25' E 008°47'0 0.0
2018-Feb-17 04:00N 44°25' E 008°47'0 0.0
2018-Feb-17 03:30N 44°25' E 008°47'0 0.0
2018-Feb-17 03:00N 44°25' E 008°47'0 0.0
2018-Feb-17 02:30N 44°25' E 008°47'0 0.0
2018-Feb-17 02:00N 44°25' E 008°47'0 0.0
2018-Feb-17 01:30N 44°25' E 008°47'0 0.0
2018-Feb-17 01:00N 44°25' E 008°47'0 0.0
2018-Feb-17 00:30N 44°25' E 008°47'0 0.0
2018-Feb-17 00:00N 44°25' E 008°47'0 0.0
2018-Feb-16 23:27N 44°25' E 008°47'0 0.0
2018-Feb-16 23:00N 44°25' E 008°47'0 0.0
2018-Feb-16 22:30N 44°25' E 008°47'0 0.0
2018-Feb-16 21:54N 44°25' E 008°47'0 0.0
2018-Feb-16 21:30N 44°25' E 008°47'0 0.0
2018-Feb-16 21:00N 44°25' E 008°47'0 0.0
2018-Feb-16 20:30N 44°25' E 008°47'0 0.0
2018-Feb-16 20:00N 44°25' E 008°47'0 0.0
2018-Feb-16 19:30N 44°25' E 008°47'0 0.0
2018-Feb-16 19:00N 44°25' E 008°47'0 0.0
2018-Feb-16 18:30N 44°25' E 008°47'0 0.0
2018-Feb-16 18:00N 44°25' E 008°47'0 0.0
2018-Feb-16 17:30N 44°25' E 008°47'0 0.0
2018-Feb-16 17:00N 44°25' E 008°47'0 0.0
2018-Feb-16 16:24N 44°25' E 008°47'0 0.0
2018-Feb-16 16:00N 44°25' E 008°47'0 0.0
2018-Feb-16 15:30N 44°25' E 008°47'0 0.0
2018-Feb-16 15:00N 44°25' E 008°47'0 0.0
2018-Feb-16 14:30N 44°25' E 008°47'0 0.0
2018-Feb-16 14:00N 44°25' E 008°47'0 0.0
2018-Feb-16 13:30N 44°25' E 008°47'0 0.0
2018-Feb-16 13:00N 44°25' E 008°47'0 0.0
2018-Feb-16 12:29N 44°25' E 008°47'0 0.0
2018-Feb-16 11:59N 44°25' E 008°47'0 0.0
2018-Feb-16 11:29N 44°25' E 008°47'0 0.0
2018-Feb-16 10:59N 44°25' E 008°47'0 0.1
2018-Feb-16 10:29N 44°25' E 008°47'0 0.1
2018-Feb-16 09:59N 44°25' E 008°47'0 0.4
2018-Feb-16 09:30N 44°25' E 008°47'3 5.3
2018-Feb-16 09:00N 44°23' E 008°44'5 9.2
2018-Feb-16 08:30N 44°19' E 008°44'612.6
2018-Feb-16 08:00N 44°14' E 008°49'815.3
2018-Feb-16 07:30N 44°07' E 008°55'816.1
2018-Feb-16 07:00N 44°00' E 009°00'815.3
2018-Feb-16 06:30N 43°54' E 009°07'816.4
2018-Feb-16 06:00N 43°50' E 009°17'816.5
2018-Feb-16 05:30N 43°46' E 009°27'816.1
2018-Feb-16 05:00N 43°42' E 009°37'816.1
2018-Feb-16 04:30N 43°38' E 009°46'816.0
2018-Feb-16 04:00N 43°34' E 009°56'816.0
2018-Feb-16 03:31N 43°30' E 010°05'714.7
2018-Feb-16 03:00N 43°32' E 010°15'3 6.3
2018-Feb-16 02:30N 43°34' E 010°18'0 0.7
2018-Feb-16 01:59N 43°34' E 010°18'0 0.0
2018-Feb-16 01:29N 43°34' E 010°18'0 0.0
2018-Feb-16 00:49N 43°34' E 010°18'0 0.0
2018-Feb-16 00:24N 43°34' E 010°18'0 0.0
2018-Feb-15 23:59N 43°34' E 010°18'0 0.0
2018-Feb-15 23:28N 43°34' E 010°18'0 0.0
2018-Feb-15 22:58N 43°34' E 010°18'0 0.0
2018-Feb-15 22:28N 43°34' E 010°18'0 0.0
2018-Feb-15 21:58N 43°34' E 010°18'0 0.0
2018-Feb-15 21:27N 43°34' E 010°18'0 0.0
2018-Feb-15 21:00N 43°34' E 010°18'0 0.0
2018-Feb-15 20:30N 43°34' E 010°18'0 0.0
2018-Feb-15 19:59N 43°34' E 010°18'0 0.0
2018-Feb-15 19:30N 43°34' E 010°18'0 0.0
2018-Feb-15 19:00N 43°34' E 010°18'0 0.0
2018-Feb-15 18:30N 43°34' E 010°18'0 0.0
2018-Feb-15 17:57N 43°34' E 010°18'0 0.0
2018-Feb-15 17:30N 43°34' E 010°18'0 0.0
2018-Feb-15 17:00N 43°34' E 010°18'0 0.0
2018-Feb-15 16:28N 43°34' E 010°18'0 0.0
2018-Feb-15 16:00N 43°34' E 010°18'0 0.0
2018-Feb-15 15:30N 43°34' E 010°18'0 0.0
2018-Feb-15 15:00N 43°34' E 010°18'0 0.0
2018-Feb-15 14:30N 43°34' E 010°18'0 0.0
2018-Feb-15 13:57N 43°34' E 010°18'0 0.0
2018-Feb-15 13:30N 43°34' E 010°18'0 0.0
2018-Feb-15 12:57N 43°34' E 010°18'0 0.0
2018-Feb-15 12:30N 43°34' E 010°18'0 0.0
2018-Feb-15 12:00N 43°34' E 010°18'0 0.0
2018-Feb-15 11:27N 43°34' E 010°18'0 0.0
2018-Feb-15 11:00N 43°34' E 010°18'0 0.0
2018-Feb-15 10:30N 43°34' E 010°18'0 0.0
2018-Feb-15 10:00N 43°34' E 010°18'0 0.0
2018-Feb-15 09:26N 43°34' E 010°18'0 0.0
2018-Feb-15 08:59N 43°34' E 010°18'0 0.0
2018-Feb-15 08:25N 43°34' E 010°18'0 0.0
2018-Feb-15 07:58N 43°34' E 010°18'0 0.0
2018-Feb-15 07:28N 43°34' E 010°18'0 0.0
2018-Feb-15 06:58N 43°34' E 010°18'0 0.7
2018-Feb-15 06:31N 43°34' E 010°18'3 5.0
2018-Feb-15 06:00N 43°32' E 010°17'1 2.7
2018-Feb-15 05:30N 43°31' E 010°15'3 5.3
2018-Feb-15 05:00N 43°29' E 010°12'1 1.9
2018-Feb-15 04:30N 43°29' E 010°11'0 0.3
2018-Feb-15 04:00N 43°29' E 010°11'0 0.6
2018-Feb-15 03:30N 43°28' E 010°11'5 9.8
2018-Feb-15 03:00N 43°25' E 010°06'510.0
2018-Feb-15 02:30N 43°21' E 010°01'612.3
2018-Feb-15 02:00N 43°17' E 009°55'816.5
2018-Feb-15 01:30N 43°12' E 009°47'1116.1
2018-Feb-15 00:49N 43°02' E 009°39'3018.6
2018-Feb-14 23:13N 42°33' E 009°48'21817.3
2018-Feb-14 10:39N 38°56' E 009°34'318.8
2018-Feb-14 10:30N 38°56' E 009°30'1019.1
2018-Feb-14 09:59N 39°00' E 009°19'919.0
2018-Feb-14 09:31N 39°05' E 009°09'612.7
2018-Feb-14 09:00N 39°11' E 009°06'2 3.9
2018-Feb-14 08:28N 39°13' E 009°04'0 0.0
2018-Feb-14 07:58N 39°13' E 009°04'0 0.0
2018-Feb-14 07:28N 39°13' E 009°04'0 0.0
2018-Feb-14 06:58N 39°13' E 009°04'0 0.0
2018-Feb-14 06:28N 39°13' E 009°04'0 0.0
2018-Feb-14 05:58N 39°13' E 009°04'0 0.0
2018-Feb-14 05:28N 39°13' E 009°04'0 0.0
2018-Feb-14 04:58N 39°13' E 009°04'0 0.0
2018-Feb-14 04:28N 39°13' E 009°04'0 0.0
2018-Feb-14 03:58N 39°13' E 009°04'0 0.0
2018-Feb-14 03:28N 39°13' E 009°04'0 0.0
2018-Feb-14 02:58N 39°13' E 009°04'0 0.0
2018-Feb-14 02:28N 39°13' E 009°04'0 0.0
2018-Feb-14 01:58N 39°13' E 009°04'0 0.0
2018-Feb-14 01:28N 39°13' E 009°04'0 0.0
2018-Feb-14 00:58N 39°13' E 009°04'0 0.0
2018-Feb-14 00:28N 39°13' E 009°04'0 0.0
2018-Feb-13 23:58N 39°13' E 009°04'0 0.0
2018-Feb-13 23:28N 39°13' E 009°04'0 0.0
2018-Feb-13 22:58N 39°13' E 009°04'0 0.0
2018-Feb-13 22:28N 39°13' E 009°04'0 0.0
2018-Feb-13 21:58N 39°13' E 009°04'0 0.0
2018-Feb-13 21:28N 39°13' E 009°04'0 0.0
2018-Feb-13 20:58N 39°13' E 009°04'0 0.0
2018-Feb-13 20:28N 39°13' E 009°04'0 0.0
2018-Feb-13 19:58N 39°13' E 009°04'0 0.0
2018-Feb-13 19:28N 39°13' E 009°04'0 0.0
2018-Feb-13 18:58N 39°13' E 009°04'0 0.0
2018-Feb-13 18:30N 39°13' E 009°04'0 0.0
2018-Feb-13 18:00N 39°13' E 009°04'0 0.0
2018-Feb-13 17:30N 39°13' E 009°04'0 0.0
2018-Feb-13 17:00N 39°13' E 009°04'0 0.0
2018-Feb-13 16:30N 39°13' E 009°04'0 0.0
2018-Feb-13 16:00N 39°13' E 009°04'0 0.0
2018-Feb-13 15:30N 39°13' E 009°04'0 0.1
2018-Feb-13 15:00N 39°13' E 009°04'1 2.3
2018-Feb-13 14:30N 39°12' E 009°05'4 8.8
2018-Feb-13 13:59N 39°07' E 009°06'612.0
2018-Feb-13 13:29N 39°02' E 009°09'714.3
2018-Feb-13 13:00N 38°55' E 009°08'714.3
2018-Feb-13 12:29N 38°47' E 009°08'612.7
2018-Feb-13 12:00N 38°42' E 009°05'1016.6
2018-Feb-13 11:26N 38°40' E 008°53'716.5
2018-Feb-13 11:01N 38°39' E 008°44'3517.2
2018-Feb-13 09:00N 38°36' E 008°00'21117.6 320 / 271017.610.8 11.2 0.716.0
2018-Feb-12 21:00N 38°48' E 003°30'4214.9 040 / 251016.610.8 9.8 4.915.0
2018-Feb-12 18:11N 38°59' E 002°38'616.6
2018-Feb-12 17:49N 39°02' E 002°31'516.3
2018-Feb-12 17:30N 39°04' E 002°25'11516.4
2018-Feb-12 10:27N 39°21' W 000°02'716.3
2018-Feb-12 10:00N 39°23' W 000°11'713.2
2018-Feb-12 09:30N 39°26' W 000°19'1 1.1
2018-Feb-12 09:00N 39°27' W 000°19'0 0.0
2018-Feb-12 08:29N 39°27' W 000°19'0 0.0
2018-Feb-12 07:55N 39°27' W 000°19'0 0.0
2018-Feb-12 07:28N 39°27' W 000°19'0 0.0
2018-Feb-12 06:58N 39°27' W 000°19'0 0.0
2018-Feb-12 06:28N 39°27' W 000°19'0 0.0
2018-Feb-12 05:58N 39°27' W 000°19'0 0.0
2018-Feb-12 05:29N 39°27' W 000°19'0 0.0
2018-Feb-12 04:59N 39°27' W 000°19'0 0.0
2018-Feb-12 04:29N 39°27' W 000°19'0 0.0
2018-Feb-12 03:58N 39°27' W 000°19'0 0.0
2018-Feb-12 03:28N 39°27' W 000°19'0 0.0
2018-Feb-12 02:58N 39°27' W 000°19'0 0.0
2018-Feb-12 02:25N 39°27' W 000°19'0 0.0
2018-Feb-12 01:58N 39°27' W 000°19'0 0.0
2018-Feb-12 01:28N 39°27' W 000°19'0 0.0
2018-Feb-12 01:00N 39°27' W 000°19'0 0.0
2018-Feb-12 00:30N 39°27' W 000°19'0 0.0
2018-Feb-12 00:00N 39°27' W 000°19'0 0.0
2018-Feb-11 23:30N 39°27' W 000°19'0 0.0
2018-Feb-11 23:00N 39°27' W 000°19'0 0.0
2018-Feb-11 22:29N 39°27' W 000°19'0 0.0
2018-Feb-11 21:58N 39°27' W 000°19'0 0.0
2018-Feb-11 21:30N 39°27' W 000°19'0 0.0
2018-Feb-11 21:00N 39°27' W 000°19'0 0.0
2018-Feb-11 20:30N 39°27' W 000°19'0 0.0
2018-Feb-11 20:00N 39°27' W 000°19'0 0.0
2018-Feb-11 19:27N 39°27' W 000°19'0 0.0
2018-Feb-11 19:00N 39°27' W 000°19'0 0.0
2018-Feb-11 18:30N 39°27' W 000°19'0 0.0
2018-Feb-11 18:00N 39°27' W 000°19'0 0.0
2018-Feb-11 17:30N 39°27' W 000°19'0 0.0
2018-Feb-11 16:58N 39°27' W 000°19'0 0.0
2018-Feb-11 16:30N 39°27' W 000°19'8511.2
2018-Feb-11 08:55N 38°02' W 000°06'716.1
2018-Feb-11 08:30N 37°57' W 000°11'916.1
2018-Feb-11 07:59N 37°50' W 000°17'916.1
2018-Feb-11 07:26N 37°43' W 000°23'715.9
2018-Feb-11 07:00N 37°37' W 000°28'815.6
2018-Feb-11 06:30N 37°31' W 000°34'815.4
2018-Feb-11 06:00N 37°26' W 000°41'815.1
2018-Feb-11 05:30N 37°20' W 000°48'22614.9
2018-Feb-10 14:19N 36°01' W 005°12'618.0
2018-Feb-10 14:00N 35°59' W 005°19'  
Track history (hours):
 
Tides and Currents Weather Stations Pressure Air Temp Water Temp Dewpoint Dewpoint Depression Visibility Wind Speed Wind Dir Waves Ship Positions

Rotterdam Express

Last reported at 2018-Feb-19 22:00 UTC. Time now 2018-Feb-19 22:19 UTC.
Position N 41°17' E 002°23'.

Length 294 m; beam 32.2 m; draft 13.6 m.

Type: Ship (hazmat cat A). MMSI: 211335760.

Date/timePositionNaut miles runAvg speedWind from/ knotsBaromVisibWave heightAir tempDewpointWater temp
2018-Feb-19 22:00N 41°17' E 002°23'5 8.9
2018-Feb-19 21:30N 41°19' E 002°28'5 8.6
2018-Feb-19 20:59N 41°21' E 002°34'4 8.6
2018-Feb-19 20:28N 41°23' E 002°39'147 6.0
2018-Feb-18 19:49N 43°08' E 004°57'3 7.6
2018-Feb-18 19:26N 43°11' E 004°60'3 7.4
2018-Feb-18 18:59N 43°14' E 005°00'10 8.4
2018-Feb-18 17:47N 43°24' E 004°56'3 9.7
2018-Feb-18 17:30N 43°24' E 004°52'1 1.4
2018-Feb-18 17:00N 43°24' E 004°51'0 0.0
2018-Feb-18 16:30N 43°24' E 004°51'0 0.0
2018-Feb-18 16:00N 43°24' E 004°51'0 0.0
2018-Feb-18 15:30N 43°24' E 004°51'0 0.0
2018-Feb-18 15:00N 43°24' E 004°51'0 0.0
2018-Feb-18 14:30N 43°24' E 004°51'0 0.0
2018-Feb-18 14:00N 43°24' E 004°51'0 0.0
2018-Feb-18 13:30N 43°24' E 004°51'0 0.0
2018-Feb-18 13:00N 43°24' E 004°51'0 0.0
2018-Feb-18 12:30N 43°24' E 004°51'0 0.0
2018-Feb-18 12:00N 43°24' E 004°51'0 0.0
2018-Feb-18 11:24N 43°24' E 004°51'0 0.0
2018-Feb-18 11:00N 43°24' E 004°51'0 0.0
2018-Feb-18 10:30N 43°24' E 004°51'0 0.0
2018-Feb-18 10:00N 43°24' E 004°51'0 0.0
2018-Feb-18 09:30N 43°24' E 004°51'0 0.0
2018-Feb-18 08:57N 43°24' E 004°51'0 0.0
2018-Feb-18 08:30N 43°24' E 004°51'0 0.0
2018-Feb-18 08:00N 43°24' E 004°51'0 0.0
2018-Feb-18 07:30N 43°24' E 004°51'0 0.0
2018-Feb-18 07:00N 43°24' E 004°51'0 0.0
2018-Feb-18 06:30N 43°24' E 004°51'0 0.0
2018-Feb-18 05:39N 43°24' E 004°51'0 0.0
2018-Feb-18 05:30N 43°24' E 004°51'0 0.0
2018-Feb-18 04:55N 43°24' E 004°51'0 0.0
2018-Feb-18 04:22N 43°24' E 004°51'0 0.0
2018-Feb-18 03:58N 43°24' E 004°51'0 0.0
2018-Feb-18 03:30N 43°24' E 004°51'0 0.5
2018-Feb-18 03:00N 43°24' E 004°51'4 7.2
2018-Feb-18 02:29N 43°23' E 004°56'4 8.9
2018-Feb-18 02:00N 43°20' E 004°59'4 7.5
2018-Feb-18 01:30N 43°16' E 005°01'8911.3
2018-Feb-17 17:41N 43°09' E 007°02'715.8
2018-Feb-17 17:13N 43°14' E 007°10'1515.4
2018-Feb-17 16:16N 43°22' E 007°26'4416.5
2018-Feb-17 13:35N 43°48' E 008°16'116.2
2018-Feb-17 13:30N 43°49' E 008°17'816.0
2018-Feb-17 12:59N 43°56' E 008°23'816.1
2018-Feb-17 12:30N 44°03' E 008°28'917.3
2018-Feb-17 12:00N 44°11' E 008°34'816.8
2018-Feb-17 11:30N 44°18' E 008°39'714.7
2018-Feb-17 11:00N 44°25' E 008°44'2 3.7
2018-Feb-17 10:30N 44°25' E 008°47'0 0.0
2018-Feb-17 10:00N 44°25' E 008°47'0 0.0
2018-Feb-17 09:30N 44°25' E 008°47'0 0.0
2018-Feb-17 09:00N 44°25' E 008°47'0 0.0
2018-Feb-17 08:27N 44°25' E 008°47'0 0.0
2018-Feb-17 08:00N 44°25' E 008°47'0 0.0
2018-Feb-17 07:29N 44°25' E 008°47'0 0.0
2018-Feb-17 06:59N 44°25' E 008°47'0 0.0
2018-Feb-17 06:29N 44°25' E 008°47'0 0.0
2018-Feb-17 06:00N 44°25' E 008°47'0 0.0
2018-Feb-17 05:30N 44°25' E 008°47'0 0.0
2018-Feb-17 05:00N 44°25' E 008°47'0 0.0
2018-Feb-17 04:30N 44°25' E 008°47'0 0.0
2018-Feb-17 04:00N 44°25' E 008°47'0 0.0
2018-Feb-17 03:30N 44°25' E 008°47'0 0.0
2018-Feb-17 03:00N 44°25' E 008°47'0 0.0
2018-Feb-17 02:30N 44°25' E 008°47'0 0.0
2018-Feb-17 02:00N 44°25' E 008°47'0 0.0
2018-Feb-17 01:30N 44°25' E 008°47'0 0.0
2018-Feb-17 01:00N 44°25' E 008°47'0 0.0
2018-Feb-17 00:30N 44°25' E 008°47'0 0.0
2018-Feb-17 00:00N 44°25' E 008°47'0 0.0
2018-Feb-16 23:27N 44°25' E 008°47'0 0.0
2018-Feb-16 23:00N 44°25' E 008°47'0 0.0
2018-Feb-16 22:30N 44°25' E 008°47'0 0.0
2018-Feb-16 21:54N 44°25' E 008°47'0 0.0
2018-Feb-16 21:30N 44°25' E 008°47'0 0.0
2018-Feb-16 21:00N 44°25' E 008°47'0 0.0
2018-Feb-16 20:30N 44°25' E 008°47'0 0.0
2018-Feb-16 20:00N 44°25' E 008°47'0 0.0
2018-Feb-16 19:30N 44°25' E 008°47'0 0.0
2018-Feb-16 19:00N 44°25' E 008°47'0 0.0
2018-Feb-16 18:30N 44°25' E 008°47'0 0.0
2018-Feb-16 18:00N 44°25' E 008°47'0 0.0
2018-Feb-16 17:30N 44°25' E 008°47'0 0.0
2018-Feb-16 17:00N 44°25' E 008°47'0 0.0
2018-Feb-16 16:24N 44°25' E 008°47'0 0.0
2018-Feb-16 16:00N 44°25' E 008°47'0 0.0
2018-Feb-16 15:30N 44°25' E 008°47'0 0.0
2018-Feb-16 15:00N 44°25' E 008°47'0 0.0
2018-Feb-16 14:30N 44°25' E 008°47'0 0.0
2018-Feb-16 14:00N 44°25' E 008°47'0 0.0
2018-Feb-16 13:30N 44°25' E 008°47'0 0.0
2018-Feb-16 13:00N 44°25' E 008°47'0 0.0
2018-Feb-16 12:29N 44°25' E 008°47'0 0.0
2018-Feb-16 11:59N 44°25' E 008°47'0 0.0
2018-Feb-16 11:29N 44°25' E 008°47'0 0.0
2018-Feb-16 10:59N 44°25' E 008°47'0 0.1
2018-Feb-16 10:29N 44°25' E 008°47'0 0.1
2018-Feb-16 09:59N 44°25' E 008°47'0 0.4
2018-Feb-16 09:30N 44°25' E 008°47'3 5.3
2018-Feb-16 09:00N 44°23' E 008°44'5 9.2
2018-Feb-16 08:30N 44°19' E 008°44'612.6
2018-Feb-16 08:00N 44°14' E 008°49'815.3
2018-Feb-16 07:30N 44°07' E 008°55'816.1
2018-Feb-16 07:00N 44°00' E 009°00'815.3
2018-Feb-16 06:30N 43°54' E 009°07'816.4
2018-Feb-16 06:00N 43°50' E 009°17'816.5
2018-Feb-16 05:30N 43°46' E 009°27'816.1
2018-Feb-16 05:00N 43°42' E 009°37'816.1
2018-Feb-16 04:30N 43°38' E 009°46'816.0
2018-Feb-16 04:00N 43°34' E 009°56'816.0
2018-Feb-16 03:31N 43°30' E 010°05'714.7
2018-Feb-16 03:00N 43°32' E 010°15'3 6.3
2018-Feb-16 02:30N 43°34' E 010°18'0 0.7
2018-Feb-16 01:59N 43°34' E 010°18'0 0.0
2018-Feb-16 01:29N 43°34' E 010°18'0 0.0
2018-Feb-16 00:49N 43°34' E 010°18'0 0.0
2018-Feb-16 00:24N 43°34' E 010°18'0 0.0
2018-Feb-15 23:59N 43°34' E 010°18'0 0.0
2018-Feb-15 23:28N 43°34' E 010°18'0 0.0
2018-Feb-15 22:58N 43°34' E 010°18'0 0.0
2018-Feb-15 22:28N 43°34' E 010°18'0 0.0
2018-Feb-15 21:58N 43°34' E 010°18'0 0.0
2018-Feb-15 21:27N 43°34' E 010°18'0 0.0
2018-Feb-15 21:00N 43°34' E 010°18'0 0.0
2018-Feb-15 20:30N 43°34' E 010°18'0 0.0
2018-Feb-15 19:59N 43°34' E 010°18'0 0.0
2018-Feb-15 19:30N 43°34' E 010°18'0 0.0
2018-Feb-15 19:00N 43°34' E 010°18'0 0.0
2018-Feb-15 18:30N 43°34' E 010°18'0 0.0
2018-Feb-15 17:57N 43°34' E 010°18'0 0.0
2018-Feb-15 17:30N 43°34' E 010°18'0 0.0
2018-Feb-15 17:00N 43°34' E 010°18'0 0.0
2018-Feb-15 16:28N 43°34' E 010°18'0 0.0
2018-Feb-15 16:00N 43°34' E 010°18'0 0.0
2018-Feb-15 15:30N 43°34' E 010°18'0 0.0
2018-Feb-15 15:00N 43°34' E 010°18'0 0.0
2018-Feb-15 14:30N 43°34' E 010°18'0 0.0
2018-Feb-15 13:57N 43°34' E 010°18'0 0.0
2018-Feb-15 13:30N 43°34' E 010°18'0 0.0
2018-Feb-15 12:57N 43°34' E 010°18'0 0.0
2018-Feb-15 12:30N 43°34' E 010°18'0 0.0
2018-Feb-15 12:00N 43°34' E 010°18'0 0.0
2018-Feb-15 11:27N 43°34' E 010°18'0 0.0
2018-Feb-15 11:00N 43°34' E 010°18'0 0.0
2018-Feb-15 10:30N 43°34' E 010°18'0 0.0
2018-Feb-15 10:00N 43°34' E 010°18'0 0.0
2018-Feb-15 09:26N 43°34' E 010°18'0 0.0
2018-Feb-15 08:59N 43°34' E 010°18'0 0.0
2018-Feb-15 08:25N 43°34' E 010°18'0 0.0
2018-Feb-15 07:58N 43°34' E 010°18'0 0.0
2018-Feb-15 07:28N 43°34' E 010°18'0 0.0
2018-Feb-15 06:58N 43°34' E 010°18'0 0.7
2018-Feb-15 06:31N 43°34' E 010°18'3 5.0
2018-Feb-15 06:00N 43°32' E 010°17'1 2.7
2018-Feb-15 05:30N 43°31' E 010°15'3 5.3
2018-Feb-15 05:00N 43°29' E 010°12'1 1.9
2018-Feb-15 04:30N 43°29' E 010°11'0 0.3
2018-Feb-15 04:00N 43°29' E 010°11'0 0.6
2018-Feb-15 03:30N 43°28' E 010°11'5 9.8
2018-Feb-15 03:00N 43°25' E 010°06'510.0
2018-Feb-15 02:30N 43°21' E 010°01'612.3
2018-Feb-15 02:00N 43°17' E 009°55'816.5
2018-Feb-15 01:30N 43°12' E 009°47'1116.1
2018-Feb-15 00:49N 43°02' E 009°39'3018.6
2018-Feb-14 23:13N 42°33' E 009°48'21817.3
2018-Feb-14 10:39N 38°56' E 009°34'318.8
2018-Feb-14 10:30N 38°56' E 009°30'1019.1
2018-Feb-14 09:59N 39°00' E 009°19'919.0
2018-Feb-14 09:31N 39°05' E 009°09'612.7
2018-Feb-14 09:00N 39°11' E 009°06'2 3.9
2018-Feb-14 08:28N 39°13' E 009°04'0 0.0
2018-Feb-14 07:58N 39°13' E 009°04'0 0.0
2018-Feb-14 07:28N 39°13' E 009°04'0 0.0
2018-Feb-14 06:58N 39°13' E 009°04'0 0.0
2018-Feb-14 06:28N 39°13' E 009°04'0 0.0
2018-Feb-14 05:58N 39°13' E 009°04'0 0.0
2018-Feb-14 05:28N 39°13' E 009°04'0 0.0
2018-Feb-14 04:58N 39°13' E 009°04'0 0.0
2018-Feb-14 04:28N 39°13' E 009°04'0 0.0
2018-Feb-14 03:58N 39°13' E 009°04'0 0.0
2018-Feb-14 03:28N 39°13' E 009°04'0 0.0
2018-Feb-14 02:58N 39°13' E 009°04'0 0.0
2018-Feb-14 02:28N 39°13' E 009°04'0 0.0
2018-Feb-14 01:58N 39°13' E 009°04'0 0.0
2018-Feb-14 01:28N 39°13' E 009°04'0 0.0
2018-Feb-14 00:58N 39°13' E 009°04'0 0.0
2018-Feb-14 00:28N 39°13' E 009°04'0 0.0
2018-Feb-13 23:58N 39°13' E 009°04'0 0.0
2018-Feb-13 23:28N 39°13' E 009°04'0 0.0
2018-Feb-13 22:58N 39°13' E 009°04'0 0.0
2018-Feb-13 22:28N 39°13' E 009°04'0 0.0
2018-Feb-13 21:58N 39°13' E 009°04'0 0.0
2018-Feb-13 21:28N 39°13' E 009°04'0 0.0
2018-Feb-13 20:58N 39°13' E 009°04'0 0.0
2018-Feb-13 20:28N 39°13' E 009°04'0 0.0
2018-Feb-13 19:58N 39°13' E 009°04'0 0.0
2018-Feb-13 19:28N 39°13' E 009°04'0 0.0
2018-Feb-13 18:58N 39°13' E 009°04'0 0.0
2018-Feb-13 18:30N 39°13' E 009°04'0 0.0
2018-Feb-13 18:00N 39°13' E 009°04'0 0.0
2018-Feb-13 17:30N 39°13' E 009°04'0 0.0
2018-Feb-13 17:00N 39°13' E 009°04'0 0.0
2018-Feb-13 16:30N 39°13' E 009°04'0 0.0
2018-Feb-13 16:00N 39°13' E 009°04'0 0.0
2018-Feb-13 15:30N 39°13' E 009°04'0 0.1
2018-Feb-13 15:00N 39°13' E 009°04'1 2.3
2018-Feb-13 14:30N 39°12' E 009°05'4 8.8
2018-Feb-13 13:59N 39°07' E 009°06'612.0
2018-Feb-13 13:29N 39°02' E 009°09'714.3
2018-Feb-13 13:00N 38°55' E 009°08'714.3
2018-Feb-13 12:29N 38°47' E 009°08'612.7
2018-Feb-13 12:00N 38°42' E 009°05'1016.6
2018-Feb-13 11:26N 38°40' E 008°53'716.5
2018-Feb-13 11:01N 38°39' E 008°44'3517.2
2018-Feb-13 09:00N 38°36' E 008°00'21117.6 320 / 271017.610.8 11.2 0.716.0
2018-Feb-12 21:00N 38°48' E 003°30'4214.9 040 / 251016.610.8 9.8 4.915.0
2018-Feb-12 18:11N 38°59' E 002°38'616.6
2018-Feb-12 17:49N 39°02' E 002°31'516.3
2018-Feb-12 17:30N 39°04' E 002°25'11516.4
2018-Feb-12 10:27N 39°21' W 000°02'716.3
2018-Feb-12 10:00N 39°23' W 000°11'713.2
2018-Feb-12 09:30N 39°26' W 000°19'1 1.1
2018-Feb-12 09:00N 39°27' W 000°19'0 0.0
2018-Feb-12 08:29N 39°27' W 000°19'0 0.0
2018-Feb-12 07:55N 39°27' W 000°19'0 0.0
2018-Feb-12 07:28N 39°27' W 000°19'0 0.0
2018-Feb-12 06:58N 39°27' W 000°19'0 0.0
2018-Feb-12 06:28N 39°27' W 000°19'0 0.0
2018-Feb-12 05:58N 39°27' W 000°19'0 0.0
2018-Feb-12 05:29N 39°27' W 000°19'0 0.0
2018-Feb-12 04:59N 39°27' W 000°19'0 0.0
2018-Feb-12 04:29N 39°27' W 000°19'0 0.0
2018-Feb-12 03:58N 39°27' W 000°19'0 0.0
2018-Feb-12 03:28N 39°27' W 000°19'0 0.0
2018-Feb-12 02:58N 39°27' W 000°19'0 0.0
2018-Feb-12 02:25N 39°27' W 000°19'0 0.0
2018-Feb-12 01:58N 39°27' W 000°19'0 0.0
2018-Feb-12 01:28N 39°27' W 000°19'0 0.0
2018-Feb-12 01:00N 39°27' W 000°19'0 0.0
2018-Feb-12 00:30N 39°27' W 000°19'0 0.0
2018-Feb-12 00:00N 39°27' W 000°19'0 0.0
2018-Feb-11 23:30N 39°27' W 000°19'0 0.0
2018-Feb-11 23:00N 39°27' W 000°19'0 0.0
2018-Feb-11 22:29N 39°27' W 000°19'0 0.0
2018-Feb-11 21:58N 39°27' W 000°19'0 0.0
2018-Feb-11 21:30N 39°27' W 000°19'0 0.0
2018-Feb-11 21:00N 39°27' W 000°19'0 0.0
2018-Feb-11 20:30N 39°27' W 000°19'0 0.0
2018-Feb-11 20:00N 39°27' W 000°19'0 0.0
2018-Feb-11 19:27N 39°27' W 000°19'0 0.0
2018-Feb-11 19:00N 39°27' W 000°19'0 0.0
2018-Feb-11 18:30N 39°27' W 000°19'0 0.0
2018-Feb-11 18:00N 39°27' W 000°19'0 0.0
2018-Feb-11 17:30N 39°27' W 000°19'0 0.0
2018-Feb-11 16:58N 39°27' W 000°19'0 0.0
2018-Feb-11 16:30N 39°27' W 000°19'8511.2
2018-Feb-11 08:55N 38°02' W 000°06'716.1
2018-Feb-11 08:30N 37°57' W 000°11'916.1
2018-Feb-11 07:59N 37°50' W 000°17'916.1
2018-Feb-11 07:26N 37°43' W 000°23'715.9
2018-Feb-11 07:00N 37°37' W 000°28'815.6
2018-Feb-11 06:30N 37°31' W 000°34'815.4
2018-Feb-11 06:00N 37°26' W 000°41'815.1
2018-Feb-11 05:30N 37°20' W 000°48'22614.9
2018-Feb-10 14:19N 36°01' W 005°12'618.0
2018-Feb-10 14:00N 35°59' W 005°19'  

Dump ship's entire track history